sensor_id;sensor_type;location;lat;lon;timestamp;P1;durP1;ratioP1;P2;durP2;ratioP2
17636;SDS011;8937;51.236;6.794;2022-10-03T00:07:49;8.23;;;1.70;;
17636;SDS011;8937;51.236;6.794;2022-10-03T00:16:15;3.53;;;1.80;;
17636;SDS011;8937;51.236;6.794;2022-10-03T00:24:45;4.13;;;1.93;;
17636;SDS011;8937;51.236;6.794;2022-10-03T00:33:13;5.87;;;1.70;;
17636;SDS011;8937;51.236;6.794;2022-10-03T00:42:10;4.57;;;2.23;;
17636;SDS011;8937;51.236;6.794;2022-10-03T00:50:44;4.13;;;2.20;;
17636;SDS011;8937;51.236;6.794;2022-10-03T00:59:12;4.87;;;1.90;;
17636;SDS011;8937;51.236;6.794;2022-10-03T01:07:50;5.93;;;2.27;;
17636;SDS011;8937;51.236;6.794;2022-10-03T01:16:16;5.97;;;2.00;;
17636;SDS011;8937;51.236;6.794;2022-10-03T01:24:49;5.60;;;2.13;;
17636;SDS011;8937;51.236;6.794;2022-10-03T01:33:13;7.33;;;2.00;;
17636;SDS011;8937;51.236;6.794;2022-10-03T01:41:36;5.80;;;2.03;;
17636;SDS011;8937;51.236;6.794;2022-10-03T01:50:06;3.43;;;1.90;;
17636;SDS011;8937;51.236;6.794;2022-10-03T01:58:36;6.80;;;2.23;;
17636;SDS011;8937;51.236;6.794;2022-10-03T02:07:05;5.57;;;2.47;;
17636;SDS011;8937;51.236;6.794;2022-10-03T02:15:30;3.50;;;1.97;;
17636;SDS011;8937;51.236;6.794;2022-10-03T02:24:03;3.13;;;1.93;;
17636;SDS011;8937;51.236;6.794;2022-10-03T02:41:15;6.10;;;1.93;;
17636;SDS011;8937;51.236;6.794;2022-10-03T03:07:06;6.07;;;2.47;;
17636;SDS011;8937;51.236;6.794;2022-10-03T03:15:55;3.37;;;2.20;;
17636;SDS011;8937;51.236;6.794;2022-10-03T03:24:31;4.80;;;2.27;;
17636;SDS011;8937;51.236;6.794;2022-10-03T03:32:59;2.37;;;2.00;;
17636;SDS011;8937;51.236;6.794;2022-10-03T03:41:39;3.60;;;2.03;;
17636;SDS011;8937;51.236;6.794;2022-10-03T03:50:08;3.50;;;2.00;;
17636;SDS011;8937;51.236;6.794;2022-10-03T03:58:36;2.10;;;1.80;;
17636;SDS011;8937;51.236;6.794;2022-10-03T04:07:02;5.30;;;2.33;;
17636;SDS011;8937;51.236;6.794;2022-10-03T04:15:29;2.50;;;1.83;;
17636;SDS011;8937;51.236;6.794;2022-10-03T04:23:57;3.20;;;1.90;;
17636;SDS011;8937;51.236;6.794;2022-10-03T04:32:30;5.63;;;2.00;;
17636;SDS011;8937;51.236;6.794;2022-10-03T04:40:56;4.57;;;2.43;;
17636;SDS011;8937;51.236;6.794;2022-10-03T04:49:23;3.97;;;2.27;;
17636;SDS011;8937;51.236;6.794;2022-10-03T04:57:51;2.93;;;2.17;;
17636;SDS011;8937;51.236;6.794;2022-10-03T05:06:33;6.47;;;2.77;;
17636;SDS011;8937;51.236;6.794;2022-10-03T05:14:58;5.43;;;2.20;;
17636;SDS011;8937;51.236;6.794;2022-10-03T05:23:28;3.67;;;2.20;;
17636;SDS011;8937;51.236;6.794;2022-10-03T05:40:19;4.37;;;2.10;;
17636;SDS011;8937;51.236;6.794;2022-10-03T05:48:43;2.30;;;2.10;;
17636;SDS011;8937;51.236;6.794;2022-10-03T05:57:15;6.17;;;2.70;;
17636;SDS011;8937;51.236;6.794;2022-10-03T06:05:50;3.83;;;2.20;;
17636;SDS011;8937;51.236;6.794;2022-10-03T06:14:22;3.93;;;2.50;;
17636;SDS011;8937;51.236;6.794;2022-10-03T06:31:38;4.50;;;2.30;;
17636;SDS011;8937;51.236;6.794;2022-10-03T07:06:13;3.40;;;2.77;;
17636;SDS011;8937;51.236;6.794;2022-10-03T07:14:52;2.80;;;2.40;;
17636;SDS011;8937;51.236;6.794;2022-10-03T07:23:39;6.07;;;2.67;;
17636;SDS011;8937;51.236;6.794;2022-10-03T07:58:20;5.40;;;3.13;;
17636;SDS011;8937;51.236;6.794;2022-10-03T08:06:46;3.63;;;2.70;;
17636;SDS011;8937;51.236;6.794;2022-10-03T08:15:15;5.13;;;2.97;;
17636;SDS011;8937;51.236;6.794;2022-10-03T08:23:53;7.03;;;2.87;;
17636;SDS011;8937;51.236;6.794;2022-10-03T08:32:35;4.67;;;3.77;;
17636;SDS011;8937;51.236;6.794;2022-10-03T08:41:17;6.67;;;3.13;;
17636;SDS011;8937;51.236;6.794;2022-10-03T08:50:00;3.60;;;2.80;;
17636;SDS011;8937;51.236;6.794;2022-10-03T08:58:45;4.20;;;2.53;;
17636;SDS011;8937;51.236;6.794;2022-10-03T09:07:18;3.40;;;2.73;;
17636;SDS011;8937;51.236;6.794;2022-10-03T09:15:58;4.37;;;2.53;;
17636;SDS011;8937;51.236;6.794;2022-10-03T09:24:31;3.30;;;2.67;;
17636;SDS011;8937;51.236;6.794;2022-10-03T09:59:28;6.43;;;2.27;;
17636;SDS011;8937;51.236;6.794;2022-10-03T10:08:01;2.43;;;2.23;;
17636;SDS011;8937;51.236;6.794;2022-10-03T10:16:33;5.00;;;2.57;;
17636;SDS011;8937;51.236;6.794;2022-10-03T10:25:07;4.00;;;1.60;;
17636;SDS011;8937;51.236;6.794;2022-10-03T10:33:46;7.07;;;2.10;;
17636;SDS011;8937;51.236;6.794;2022-10-03T10:42:39;2.53;;;1.50;;
17636;SDS011;8937;51.236;6.794;2022-10-03T11:08:43;5.60;;;1.73;;
17636;SDS011;8937;51.236;6.794;2022-10-03T11:17:18;3.27;;;1.60;;
17636;SDS011;8937;51.236;6.794;2022-10-03T11:25:52;3.87;;;1.20;;
17636;SDS011;8937;51.236;6.794;2022-10-03T11:43:16;1.70;;;1.30;;
17636;SDS011;8937;51.236;6.794;2022-10-03T11:51:41;1.77;;;1.10;;
17636;SDS011;8937;51.236;6.794;2022-10-03T12:00:08;2.87;;;1.03;;
17636;SDS011;8937;51.236;6.794;2022-10-03T12:08:33;1.80;;;1.00;;
17636;SDS011;8937;51.236;6.794;2022-10-03T12:17:15;0.82;;;0.80;;
17636;SDS011;8937;51.236;6.794;2022-10-03T12:25:39;1.95;;;1.00;;
17636;SDS011;8937;51.236;6.794;2022-10-03T12:34:07;1.00;;;1.00;;
17636;SDS011;8937;51.236;6.794;2022-10-03T12:42:37;2.65;;;1.20;;
17636;SDS011;8937;51.236;6.794;2022-10-03T12:51:03;1.35;;;1.00;;
17636;SDS011;8937;51.236;6.794;2022-10-03T12:59:30;1.88;;;0.90;;
17636;SDS011;8937;51.236;6.794;2022-10-03T13:07:59;1.38;;;0.98;;
17636;SDS011;8937;51.236;6.794;2022-10-03T13:16:23;1.75;;;0.90;;
17636;SDS011;8937;51.236;6.794;2022-10-03T13:24:49;1.90;;;1.00;;
17636;SDS011;8937;51.236;6.794;2022-10-03T13:33:13;2.10;;;0.90;;
17636;SDS011;8937;51.236;6.794;2022-10-03T13:41:53;0.93;;;0.65;;
17636;SDS011;8937;51.236;6.794;2022-10-03T13:50:17;2.03;;;0.80;;
17636;SDS011;8937;51.236;6.794;2022-10-03T13:58:45;0.70;;;0.70;;
17636;SDS011;8937;51.236;6.794;2022-10-03T14:07:12;1.92;;;1.00;;
17636;SDS011;8937;51.236;6.794;2022-10-03T14:15:44;0.60;;;0.60;;
17636;SDS011;8937;51.236;6.794;2022-10-03T14:24:14;2.90;;;0.80;;
17636;SDS011;8937;51.236;6.794;2022-10-03T14:32:41;1.20;;;0.88;;
17636;SDS011;8937;51.236;6.794;2022-10-03T14:41:05;1.17;;;0.85;;
17636;SDS011;8937;51.236;6.794;2022-10-03T14:49:31;1.70;;;0.88;;
17636;SDS011;8937;51.236;6.794;2022-10-03T14:57:56;0.98;;;0.88;;
17636;SDS011;8937;51.236;6.794;2022-10-03T15:06:31;3.03;;;0.73;;
17636;SDS011;8937;51.236;6.794;2022-10-03T15:14:54;1.45;;;0.90;;
17636;SDS011;8937;51.236;6.794;2022-10-03T15:23:20;2.40;;;0.90;;
17636;SDS011;8937;51.236;6.794;2022-10-03T15:31:43;2.40;;;0.60;;
17636;SDS011;8937;51.236;6.794;2022-10-03T15:40:08;2.60;;;1.20;;
17636;SDS011;8937;51.236;6.794;2022-10-03T15:48:31;3.38;;;1.25;;
17636;SDS011;8937;51.236;6.794;2022-10-03T15:56:55;1.53;;;1.10;;
17636;SDS011;8937;51.236;6.794;2022-10-03T16:05:19;2.30;;;1.30;;
17636;SDS011;8937;51.236;6.794;2022-10-03T16:13:43;1.10;;;1.00;;
17636;SDS011;8937;51.236;6.794;2022-10-03T16:22:11;1.63;;;0.87;;
17636;SDS011;8937;51.236;6.794;2022-10-03T16:30:35;1.40;;;0.90;;
17636;SDS011;8937;51.236;6.794;2022-10-03T16:38:58;0.77;;;0.77;;
17636;SDS011;8937;51.236;6.794;2022-10-03T16:47:28;2.53;;;1.03;;
17636;SDS011;8937;51.236;6.794;2022-10-03T16:55:51;2.97;;;2.00;;
17636;SDS011;8937;51.236;6.794;2022-10-03T17:04:18;3.13;;;1.10;;
17636;SDS011;8937;51.236;6.794;2022-10-03T17:12:42;1.30;;;1.20;;
17636;SDS011;8937;51.236;6.794;2022-10-03T17:21:07;2.10;;;1.43;;
17636;SDS011;8937;51.236;6.794;2022-10-03T17:29:31;3.43;;;1.43;;
17636;SDS011;8937;51.236;6.794;2022-10-03T17:38:16;1.53;;;1.43;;
17636;SDS011;8937;51.236;6.794;2022-10-03T17:46:47;2.40;;;1.80;;
17636;SDS011;8937;51.236;6.794;2022-10-03T17:55:17;2.53;;;2.33;;
17636;SDS011;8937;51.236;6.794;2022-10-03T18:03:40;4.67;;;2.20;;
17636;SDS011;8937;51.236;6.794;2022-10-03T18:12:10;4.90;;;2.63;;
17636;SDS011;8937;51.236;6.794;2022-10-03T18:20:39;4.53;;;2.37;;
17636;SDS011;8937;51.236;6.794;2022-10-03T18:29:12;4.60;;;3.03;;
17636;SDS011;8937;51.236;6.794;2022-10-03T18:37:51;4.60;;;3.30;;
17636;SDS011;8937;51.236;6.794;2022-10-03T18:46:18;4.13;;;3.03;;
17636;SDS011;8937;51.236;6.794;2022-10-03T18:54:45;2.80;;;2.60;;
17636;SDS011;8937;51.236;6.794;2022-10-03T19:03:11;4.80;;;3.20;;
17636;SDS011;8937;51.236;6.794;2022-10-03T19:11:35;7.10;;;3.50;;
17636;SDS011;8937;51.236;6.794;2022-10-03T19:20:10;3.50;;;3.07;;
17636;SDS011;8937;51.236;6.794;2022-10-03T19:28:36;4.00;;;3.20;;
17636;SDS011;8937;51.236;6.794;2022-10-03T19:37:00;3.93;;;2.97;;
17636;SDS011;8937;51.236;6.794;2022-10-03T19:45:23;5.07;;;3.43;;
17636;SDS011;8937;51.236;6.794;2022-10-03T19:53:46;4.37;;;2.77;;
17636;SDS011;8937;51.236;6.794;2022-10-03T20:02:08;3.00;;;2.70;;
17636;SDS011;8937;51.236;6.794;2022-10-03T20:10:44;4.43;;;2.80;;
17636;SDS011;8937;51.236;6.794;2022-10-03T20:19:08;2.87;;;2.53;;
17636;SDS011;8937;51.236;6.794;2022-10-03T20:27:34;3.67;;;2.70;;
17636;SDS011;8937;51.236;6.794;2022-10-03T20:35:57;4.43;;;3.23;;
17636;SDS011;8937;51.236;6.794;2022-10-03T20:44:22;6.23;;;2.93;;
17636;SDS011;8937;51.236;6.794;2022-10-03T20:52:51;5.13;;;2.50;;
17636;SDS011;8937;51.236;6.794;2022-10-03T21:01:15;5.83;;;3.17;;
17636;SDS011;8937;51.236;6.794;2022-10-03T21:09:41;4.43;;;2.90;;
17636;SDS011;8937;51.236;6.794;2022-10-03T21:18:05;6.53;;;2.97;;
17636;SDS011;8937;51.236;6.794;2022-10-03T21:26:28;3.93;;;2.73;;
17636;SDS011;8937;51.236;6.794;2022-10-03T21:34:53;5.00;;;2.80;;
17636;SDS011;8937;51.236;6.794;2022-10-03T21:43:21;4.07;;;2.63;;
17636;SDS011;8937;51.236;6.794;2022-10-03T21:51:59;4.67;;;2.90;;
17636;SDS011;8937;51.236;6.794;2022-10-03T22:00:24;4.10;;;2.87;;
17636;SDS011;8937;51.236;6.794;2022-10-03T22:08:47;4.40;;;2.80;;
17636;SDS011;8937;51.236;6.794;2022-10-03T22:17:14;2.57;;;2.37;;
17636;SDS011;8937;51.236;6.794;2022-10-03T22:25:42;5.00;;;2.70;;
17636;SDS011;8937;51.236;6.794;2022-10-03T22:34:13;4.53;;;2.60;;
17636;SDS011;8937;51.236;6.794;2022-10-03T22:42:41;6.40;;;3.43;;
17636;SDS011;8937;51.236;6.794;2022-10-03T22:51:04;3.47;;;2.50;;
17636;SDS011;8937;51.236;6.794;2022-10-03T22:59:30;4.20;;;2.60;;
17636;SDS011;8937;51.236;6.794;2022-10-03T23:07:55;3.07;;;2.77;;
17636;SDS011;8937;51.236;6.794;2022-10-03T23:16:27;4.67;;;3.03;;
17636;SDS011;8937;51.236;6.794;2022-10-03T23:24:52;3.70;;;3.20;;
17636;SDS011;8937;51.236;6.794;2022-10-03T23:33:17;3.40;;;3.00;;
17636;SDS011;8937;51.236;6.794;2022-10-03T23:50:14;3.60;;;3.17;;
17636;SDS011;8937;51.236;6.794;2022-10-03T23:58:37;2.97;;;2.67;;
